sensor_id;sensor_type;location;lat;lon;timestamp;temperature;humidity
3866;DHT22;1948;53.250;10.412;2022-11-21T00:01:26;0.30;99.90
3866;DHT22;1948;53.250;10.412;2022-11-21T00:03:54;0.30;99.90
3866;DHT22;1948;53.250;10.412;2022-11-21T00:06:21;0.30;99.90
3866;DHT22;1948;53.250;10.412;2022-11-21T00:08:50;0.20;99.90
3866;DHT22;1948;53.250;10.412;2022-11-21T00:11:20;0.10;99.90
3866;DHT22;1948;53.250;10.412;2022-11-21T00:13:49;0.10;99.90
3866;DHT22;1948;53.250;10.412;2022-11-21T00:16:18;0.10;99.90
3866;DHT22;1948;53.250;10.412;2022-11-21T00:18:45;0.10;99.90
3866;DHT22;1948;53.250;10.412;2022-11-21T00:21:14;0.00;99.90
3866;DHT22;1948;53.250;10.412;2022-11-21T00:23:44;-0.10;99.90
3866;DHT22;1948;53.250;10.412;2022-11-21T00:26:13;-0.10;99.90
3866;DHT22;1948;53.250;10.412;2022-11-21T00:28:41;-0.20;99.90
3866;DHT22;1948;53.250;10.412;2022-11-21T00:31:22;-0.20;99.90
3866;DHT22;1948;53.250;10.412;2022-11-21T00:33:51;-0.20;99.90
3866;DHT22;1948;53.250;10.412;2022-11-21T00:36:18;-0.10;99.90
3866;DHT22;1948;53.250;10.412;2022-11-21T00:38:45;0.00;99.90
3866;DHT22;1948;53.250;10.412;2022-11-21T00:41:14;0.00;99.90
3866;DHT22;1948;53.250;10.412;2022-11-21T00:43:44;0.10;99.90
3866;DHT22;1948;53.250;10.412;2022-11-21T00:46:14;0.10;99.90
3866;DHT22;1948;53.250;10.412;2022-11-21T00:48:43;0.20;99.90
3866;DHT22;1948;53.250;10.412;2022-11-21T00:51:13;0.20;99.90
3866;DHT22;1948;53.250;10.412;2022-11-21T00:53:43;0.30;99.90
3866;DHT22;1948;53.250;10.412;2022-11-21T00:56:10;0.50;99.90
3866;DHT22;1948;53.250;10.412;2022-11-21T00:58:40;0.50;99.90
3866;DHT22;1948;53.250;10.412;2022-11-21T01:01:12;0.50;99.90
3866;DHT22;1948;53.250;10.412;2022-11-21T01:03:41;0.50;99.90
3866;DHT22;1948;53.250;10.412;2022-11-21T01:06:10;0.50;99.90
3866;DHT22;1948;53.250;10.412;2022-11-21T01:08:43;0.50;99.90
3866;DHT22;1948;53.250;10.412;2022-11-21T01:11:15;0.60;99.90
3866;DHT22;1948;53.250;10.412;2022-11-21T01:13:43;0.60;99.90
3866;DHT22;1948;53.250;10.412;2022-11-21T01:16:19;0.70;99.90
3866;DHT22;1948;53.250;10.412;2022-11-21T01:18:47;0.60;99.90
3866;DHT22;1948;53.250;10.412;2022-11-21T01:21:28;0.60;99.90
3866;DHT22;1948;53.250;10.412;2022-11-21T01:23:59;0.60;99.90
3866;DHT22;1948;53.250;10.412;2022-11-21T01:26:28;0.60;99.90
3866;DHT22;1948;53.250;10.412;2022-11-21T01:28:56;0.60;99.90
3866;DHT22;1948;53.250;10.412;2022-11-21T01:31:28;0.60;99.90
3866;DHT22;1948;53.250;10.412;2022-11-21T01:33:57;0.70;99.90
3866;DHT22;1948;53.250;10.412;2022-11-21T01:36:30;0.70;99.90
3866;DHT22;1948;53.250;10.412;2022-11-21T01:39:03;0.70;99.90
3866;DHT22;1948;53.250;10.412;2022-11-21T01:46:50;0.80;99.90
3866;DHT22;1948;53.250;10.412;2022-11-21T01:49:26;0.80;99.90
3866;DHT22;1948;53.250;10.412;2022-11-21T01:57:30;0.70;99.90
3866;DHT22;1948;53.250;10.412;2022-11-21T02:00:09;0.70;99.90
3866;DHT22;1948;53.250;10.412;2022-11-21T02:02:43;0.80;99.90
3866;DHT22;1948;53.250;10.412;2022-11-21T02:05:17;0.80;99.90
3866;DHT22;1948;53.250;10.412;2022-11-21T02:07:47;0.80;99.90
3866;DHT22;1948;53.250;10.412;2022-11-21T02:10:18;0.80;99.90
3866;DHT22;1948;53.250;10.412;2022-11-21T02:12:55;0.90;99.90
3866;DHT22;1948;53.250;10.412;2022-11-21T02:15:26;0.90;99.90
3866;DHT22;1948;53.250;10.412;2022-11-21T02:17:56;0.80;99.90
3866;DHT22;1948;53.250;10.412;2022-11-21T02:20:29;0.90;99.90
3866;DHT22;1948;53.250;10.412;2022-11-21T02:23:14;0.80;99.90
3866;DHT22;1948;53.250;10.412;2022-11-21T02:25:52;0.90;99.90
3866;DHT22;1948;53.250;10.412;2022-11-21T02:28:20;0.80;99.90
3866;DHT22;1948;53.250;10.412;2022-11-21T02:30:49;0.90;99.90
3866;DHT22;1948;53.250;10.412;2022-11-21T02:33:23;0.90;99.90
3866;DHT22;1948;53.250;10.412;2022-11-21T02:36:02;0.80;99.90
3866;DHT22;1948;53.250;10.412;2022-11-21T02:38:35;0.80;99.90
3866;DHT22;1948;53.250;10.412;2022-11-21T02:41:15;0.60;99.90
3866;DHT22;1948;53.250;10.412;2022-11-21T02:43:56;0.50;99.90
3866;DHT22;1948;53.250;10.412;2022-11-21T02:46:33;0.50;99.90
3866;DHT22;1948;53.250;10.412;2022-11-21T02:49:05;0.60;99.90
3866;DHT22;1948;53.250;10.412;2022-11-21T02:51:33;0.70;99.90
3866;DHT22;1948;53.250;10.412;2022-11-21T02:54:00;0.70;99.90
3866;DHT22;1948;53.250;10.412;2022-11-21T02:56:27;0.80;99.90
3866;DHT22;1948;53.250;10.412;2022-11-21T02:58:54;0.90;99.90
3866;DHT22;1948;53.250;10.412;2022-11-21T03:01:21;0.90;99.90
3866;DHT22;1948;53.250;10.412;2022-11-21T03:03:50;0.90;99.90
3866;DHT22;1948;53.250;10.412;2022-11-21T03:06:17;0.80;99.90
3866;DHT22;1948;53.250;10.412;2022-11-21T03:08:44;0.60;99.90
3866;DHT22;1948;53.250;10.412;2022-11-21T03:11:14;0.70;99.90
3866;DHT22;1948;53.250;10.412;2022-11-21T03:13:41;0.60;99.90
3866;DHT22;1948;53.250;10.412;2022-11-21T03:16:10;0.40;99.90
3866;DHT22;1948;53.250;10.412;2022-11-21T03:18:37;0.50;99.90
3866;DHT22;1948;53.250;10.412;2022-11-21T03:21:07;0.60;99.90
3866;DHT22;1948;53.250;10.412;2022-11-21T03:23:36;0.70;99.90
3866;DHT22;1948;53.250;10.412;2022-11-21T03:26:03;0.80;99.90
3866;DHT22;1948;53.250;10.412;2022-11-21T03:28:30;0.80;99.90
3866;DHT22;1948;53.250;10.412;2022-11-21T03:30:59;0.90;99.90
3866;DHT22;1948;53.250;10.412;2022-11-21T03:33:26;0.90;99.90
3866;DHT22;1948;53.250;10.412;2022-11-21T03:35:55;1.00;99.90
3866;DHT22;1948;53.250;10.412;2022-11-21T03:38:22;1.00;99.90
3866;DHT22;1948;53.250;10.412;2022-11-21T03:40:49;1.00;99.90
3866;DHT22;1948;53.250;10.412;2022-11-21T03:43:18;1.00;99.90
3866;DHT22;1948;53.250;10.412;2022-11-21T03:45:48;1.10;99.90
3866;DHT22;1948;53.250;10.412;2022-11-21T03:48:14;1.10;99.90
3866;DHT22;1948;53.250;10.412;2022-11-21T03:50:44;1.10;99.90
3866;DHT22;1948;53.250;10.412;2022-11-21T03:53:13;1.20;99.90
3866;DHT22;1948;53.250;10.412;2022-11-21T03:55:43;1.10;99.90
3866;DHT22;1948;53.250;10.412;2022-11-21T03:58:10;1.20;99.90
3866;DHT22;1948;53.250;10.412;2022-11-21T04:00:39;1.20;99.90
3866;DHT22;1948;53.250;10.412;2022-11-21T04:03:06;1.20;99.90
3866;DHT22;1948;53.250;10.412;2022-11-21T04:05:35;1.10;99.90
3866;DHT22;1948;53.250;10.412;2022-11-21T04:08:01;0.90;99.90
3866;DHT22;1948;53.250;10.412;2022-11-21T04:10:28;0.90;99.90
3866;DHT22;1948;53.250;10.412;2022-11-21T04:12:57;0.80;99.90
3866;DHT22;1948;53.250;10.412;2022-11-21T04:15:27;0.70;99.90
3866;DHT22;1948;53.250;10.412;2022-11-21T04:18:00;0.60;99.90
3866;DHT22;1948;53.250;10.412;2022-11-21T04:20:27;0.70;99.90
3866;DHT22;1948;53.250;10.412;2022-11-21T04:26:11;0.70;99.90
3866;DHT22;1948;53.250;10.412;2022-11-21T04:28:38;0.70;99.90
3866;DHT22;1948;53.250;10.412;2022-11-21T04:31:06;0.70;99.90
3866;DHT22;1948;53.250;10.412;2022-11-21T04:33:37;0.60;99.90
3866;DHT22;1948;53.250;10.412;2022-11-21T04:36:08;0.50;99.90
3866;DHT22;1948;53.250;10.412;2022-11-21T04:38:37;0.60;99.90
3866;DHT22;1948;53.250;10.412;2022-11-21T04:41:04;0.60;99.90
3866;DHT22;1948;53.250;10.412;2022-11-21T04:43:31;0.70;99.90
3866;DHT22;1948;53.250;10.412;2022-11-21T04:45:58;0.70;99.90
3866;DHT22;1948;53.250;10.412;2022-11-21T04:48:24;0.80;99.90
3866;DHT22;1948;53.250;10.412;2022-11-21T04:50:51;0.70;99.90
3866;DHT22;1948;53.250;10.412;2022-11-21T04:53:18;0.70;99.90
3866;DHT22;1948;53.250;10.412;2022-11-21T04:55:45;0.70;99.90
3866;DHT22;1948;53.250;10.412;2022-11-21T04:58:15;0.50;99.90
3866;DHT22;1948;53.250;10.412;2022-11-21T05:00:42;0.30;99.90
3866;DHT22;1948;53.250;10.412;2022-11-21T05:03:09;0.30;99.90
3866;DHT22;1948;53.250;10.412;2022-11-21T05:05:36;0.20;99.90
3866;DHT22;1948;53.250;10.412;2022-11-21T05:08:03;0.10;99.90
3866;DHT22;1948;53.250;10.412;2022-11-21T05:10:32;0.10;99.90
3866;DHT22;1948;53.250;10.412;2022-11-21T05:13:22;0.10;99.90
3866;DHT22;1948;53.250;10.412;2022-11-21T05:15:55;0.20;99.90
3866;DHT22;1948;53.250;10.412;2022-11-21T05:18:25;0.10;99.90
3866;DHT22;1948;53.250;10.412;2022-11-21T05:20:52;0.00;99.90
3866;DHT22;1948;53.250;10.412;2022-11-21T05:23:19;0.00;99.90
3866;DHT22;1948;53.250;10.412;2022-11-21T05:25:45;-0.10;99.90
3866;DHT22;1948;53.250;10.412;2022-11-21T05:28:12;-0.10;99.90
3866;DHT22;1948;53.250;10.412;2022-11-21T05:30:44;-0.20;99.90
3866;DHT22;1948;53.250;10.412;2022-11-21T05:33:11;-0.30;99.90
3866;DHT22;1948;53.250;10.412;2022-11-21T05:35:38;-0.20;99.90
3866;DHT22;1948;53.250;10.412;2022-11-21T05:38:09;-0.10;99.90
3866;DHT22;1948;53.250;10.412;2022-11-21T05:40:36;-0.20;99.90
3866;DHT22;1948;53.250;10.412;2022-11-21T05:43:03;-0.40;99.90
3866;DHT22;1948;53.250;10.412;2022-11-21T05:45:52;-0.30;99.90
3866;DHT22;1948;53.250;10.412;2022-11-21T05:48:19;-0.20;99.90
3866;DHT22;1948;53.250;10.412;2022-11-21T05:50:49;-0.10;99.90
3866;DHT22;1948;53.250;10.412;2022-11-21T05:53:19;-0.10;99.90
3866;DHT22;1948;53.250;10.412;2022-11-21T05:55:48;-0.10;99.90
3866;DHT22;1948;53.250;10.412;2022-11-21T05:58:15;-0.30;99.90
3866;DHT22;1948;53.250;10.412;2022-11-21T06:00:45;-0.40;99.90
3866;DHT22;1948;53.250;10.412;2022-11-21T06:03:12;-0.30;99.90
3866;DHT22;1948;53.250;10.412;2022-11-21T06:08:41;-0.10;99.90
3866;DHT22;1948;53.250;10.412;2022-11-21T06:11:11;0.00;99.90
3866;DHT22;1948;53.250;10.412;2022-11-21T06:13:40;0.10;99.90
3866;DHT22;1948;53.250;10.412;2022-11-21T06:16:12;0.10;99.90
3866;DHT22;1948;53.250;10.412;2022-11-21T06:18:42;0.10;99.90
3866;DHT22;1948;53.250;10.412;2022-11-21T06:21:23;0.00;99.90
3866;DHT22;1948;53.250;10.412;2022-11-21T06:23:52;0.00;99.90
3866;DHT22;1948;53.250;10.412;2022-11-21T06:26:26;0.10;99.90
3866;DHT22;1948;53.250;10.412;2022-11-21T06:28:53;0.10;99.90
3866;DHT22;1948;53.250;10.412;2022-11-21T06:31:25;0.10;99.90
3866;DHT22;1948;53.250;10.412;2022-11-21T06:33:57;0.10;99.90
3866;DHT22;1948;53.250;10.412;2022-11-21T06:36:25;0.20;99.90
3866;DHT22;1948;53.250;10.412;2022-11-21T06:38:55;0.20;99.90
3866;DHT22;1948;53.250;10.412;2022-11-21T06:41:25;-0.10;99.90
3866;DHT22;1948;53.250;10.412;2022-11-21T06:43:52;-0.20;99.90
3866;DHT22;1948;53.250;10.412;2022-11-21T06:46:22;-0.20;99.90
3866;DHT22;1948;53.250;10.412;2022-11-21T06:48:48;-0.20;99.90
3866;DHT22;1948;53.250;10.412;2022-11-21T06:51:17;-0.30;99.90
3866;DHT22;1948;53.250;10.412;2022-11-21T06:54:00;-0.30;99.90
3866;DHT22;1948;53.250;10.412;2022-11-21T06:56:28;-0.50;99.90
3866;DHT22;1948;53.250;10.412;2022-11-21T06:58:56;-0.80;99.90
3866;DHT22;1948;53.250;10.412;2022-11-21T07:01:24;-0.90;99.90
3866;DHT22;1948;53.250;10.412;2022-11-21T07:03:56;-0.90;99.90
3866;DHT22;1948;53.250;10.412;2022-11-21T07:06:23;-0.80;99.90
3866;DHT22;1948;53.250;10.412;2022-11-21T07:08:55;-0.80;99.90
3866;DHT22;1948;53.250;10.412;2022-11-21T07:11:42;-0.90;99.90
3866;DHT22;1948;53.250;10.412;2022-11-21T07:14:14;-1.00;99.90
3866;DHT22;1948;53.250;10.412;2022-11-21T07:16:43;-1.00;99.90
3866;DHT22;1948;53.250;10.412;2022-11-21T07:19:10;-1.10;99.90
3866;DHT22;1948;53.250;10.412;2022-11-21T07:21:37;-1.10;99.90
3866;DHT22;1948;53.250;10.412;2022-11-21T07:24:04;-1.10;99.90
3866;DHT22;1948;53.250;10.412;2022-11-21T07:26:31;-1.10;99.90
3866;DHT22;1948;53.250;10.412;2022-11-21T07:29:00;-1.10;99.90
3866;DHT22;1948;53.250;10.412;2022-11-21T07:31:30;-1.10;99.90
3866;DHT22;1948;53.250;10.412;2022-11-21T07:33:59;-0.90;99.90
3866;DHT22;1948;53.250;10.412;2022-11-21T07:36:28;-0.90;99.90
3866;DHT22;1948;53.250;10.412;2022-11-21T07:39:00;-0.80;99.90
3866;DHT22;1948;53.250;10.412;2022-11-21T07:41:28;-0.70;99.90
3866;DHT22;1948;53.250;10.412;2022-11-21T07:43:55;-0.60;99.90
3866;DHT22;1948;53.250;10.412;2022-11-21T07:46:22;-0.50;99.90
3866;DHT22;1948;53.250;10.412;2022-11-21T07:48:49;-0.50;99.90
3866;DHT22;1948;53.250;10.412;2022-11-21T07:51:18;-0.60;99.90
3866;DHT22;1948;53.250;10.412;2022-11-21T07:53:50;-0.60;99.90
3866;DHT22;1948;53.250;10.412;2022-11-21T07:56:19;-0.60;99.90
3866;DHT22;1948;53.250;10.412;2022-11-21T07:58:51;-0.70;99.90
3866;DHT22;1948;53.250;10.412;2022-11-21T08:01:18;-0.70;99.90
3866;DHT22;1948;53.250;10.412;2022-11-21T08:03:45;-0.60;99.90
3866;DHT22;1948;53.250;10.412;2022-11-21T08:06:12;-0.50;99.90
3866;DHT22;1948;53.250;10.412;2022-11-21T08:08:39;-0.30;99.90
3866;DHT22;1948;53.250;10.412;2022-11-21T08:11:06;-0.30;99.90
3866;DHT22;1948;53.250;10.412;2022-11-21T08:13:34;-0.20;99.90
3866;DHT22;1948;53.250;10.412;2022-11-21T08:16:02;-0.30;99.90
3866;DHT22;1948;53.250;10.412;2022-11-21T08:18:30;-0.30;99.90
3866;DHT22;1948;53.250;10.412;2022-11-21T08:21:02;-0.30;99.90
3866;DHT22;1948;53.250;10.412;2022-11-21T08:23:30;-0.30;99.90
3866;DHT22;1948;53.250;10.412;2022-11-21T08:25:58;-0.30;99.90
3866;DHT22;1948;53.250;10.412;2022-11-21T08:28:25;-0.30;99.90
3866;DHT22;1948;53.250;10.412;2022-11-21T08:30:52;-0.40;99.90
3866;DHT22;1948;53.250;10.412;2022-11-21T08:33:21;-0.20;99.90
3866;DHT22;1948;53.250;10.412;2022-11-21T08:35:48;-0.10;99.90
3866;DHT22;1948;53.250;10.412;2022-11-21T08:38:15;-0.10;99.90
3866;DHT22;1948;53.250;10.412;2022-11-21T08:40:42;-0.20;99.90
3866;DHT22;1948;53.250;10.412;2022-11-21T08:43:09;-0.20;99.90
3866;DHT22;1948;53.250;10.412;2022-11-21T08:45:37;-0.20;99.90
3866;DHT22;1948;53.250;10.412;2022-11-21T08:48:10;-0.10;99.90
3866;DHT22;1948;53.250;10.412;2022-11-21T08:50:38;0.10;99.90
3866;DHT22;1948;53.250;10.412;2022-11-21T08:53:04;0.10;99.90
3866;DHT22;1948;53.250;10.412;2022-11-21T08:55:31;0.10;99.90
3866;DHT22;1948;53.250;10.412;2022-11-21T08:58:05;0.20;99.90
3866;DHT22;1948;53.250;10.412;2022-11-21T09:00:32;0.30;99.90
3866;DHT22;1948;53.250;10.412;2022-11-21T09:03:03;0.50;99.90
3866;DHT22;1948;53.250;10.412;2022-11-21T09:05:32;0.80;99.90
3866;DHT22;1948;53.250;10.412;2022-11-21T09:07:59;1.00;99.90
3866;DHT22;1948;53.250;10.412;2022-11-21T09:10:30;1.40;99.90
3866;DHT22;1948;53.250;10.412;2022-11-21T09:13:00;1.80;99.90
3866;DHT22;1948;53.250;10.412;2022-11-21T09:15:29;2.40;99.90
3866;DHT22;1948;53.250;10.412;2022-11-21T09:18:16;2.70;99.90
3866;DHT22;1948;53.250;10.412;2022-11-21T09:20:43;3.10;99.90
3866;DHT22;1948;53.250;10.412;2022-11-21T09:23:13;3.20;99.90
3866;DHT22;1948;53.250;10.412;2022-11-21T09:25:42;2.90;99.90
3866;DHT22;1948;53.250;10.412;2022-11-21T09:28:13;2.30;99.90
3866;DHT22;1948;53.250;10.412;2022-11-21T09:30:41;1.90;99.90
3866;DHT22;1948;53.250;10.412;2022-11-21T09:33:12;1.70;99.90
3866;DHT22;1948;53.250;10.412;2022-11-21T09:35:42;1.50;99.90
3866;DHT22;1948;53.250;10.412;2022-11-21T09:38:13;1.70;99.90
3866;DHT22;1948;53.250;10.412;2022-11-21T09:40:47;2.60;99.90
3866;DHT22;1948;53.250;10.412;2022-11-21T09:46:12;4.00;99.90
3866;DHT22;1948;53.250;10.412;2022-11-21T09:48:57;5.50;99.90
3866;DHT22;1948;53.250;10.412;2022-11-21T09:51:29;6.20;99.90
3866;DHT22;1948;53.250;10.412;2022-11-21T09:56:41;6.90;99.90
3866;DHT22;1948;53.250;10.412;2022-11-21T10:01:58;7.10;99.90
3866;DHT22;1948;53.250;10.412;2022-11-21T10:04:51;7.60;99.90
3866;DHT22;1948;53.250;10.412;2022-11-21T10:07:25;8.50;99.90
3866;DHT22;1948;53.250;10.412;2022-11-21T10:27:02;10.20;99.90
3866;DHT22;1948;53.250;10.412;2022-11-21T10:30:18;9.00;99.90
3866;DHT22;1948;53.250;10.412;2022-11-21T10:32:57;7.80;99.90
3866;DHT22;1948;53.250;10.412;2022-11-21T10:38:37;7.20;99.90
3866;DHT22;1948;53.250;10.412;2022-11-21T10:41:14;8.80;99.90
3866;DHT22;1948;53.250;10.412;2022-11-21T10:44:26;10.90;99.90
3866;DHT22;1948;53.250;10.412;2022-11-21T10:47:31;12.60;99.90
3866;DHT22;1948;53.250;10.412;2022-11-21T10:56:07;16.50;99.90
3866;DHT22;1948;53.250;10.412;2022-11-21T10:58:57;16.40;97.40
3866;DHT22;1948;53.250;10.412;2022-11-21T11:01:31;16.80;97.60
3866;DHT22;1948;53.250;10.412;2022-11-21T11:07:19;17.80;95.90
3866;DHT22;1948;53.250;10.412;2022-11-21T11:09:48;18.90;93.30
3866;DHT22;1948;53.250;10.412;2022-11-21T11:12:23;19.20;92.00
3866;DHT22;1948;53.250;10.412;2022-11-21T11:15:24;19.40;90.90
3866;DHT22;1948;53.250;10.412;2022-11-21T11:18:02;18.10;90.60
3866;DHT22;1948;53.250;10.412;2022-11-21T11:25:49;20.10;88.50
3866;DHT22;1948;53.250;10.412;2022-11-21T11:28:20;20.80;85.60
3866;DHT22;1948;53.250;10.412;2022-11-21T11:30:57;20.00;81.60
3866;DHT22;1948;53.250;10.412;2022-11-21T11:33:36;19.40;82.80
3866;DHT22;1948;53.250;10.412;2022-11-21T11:39:05;17.40;84.90
3866;DHT22;1948;53.250;10.412;2022-11-21T11:48:02;18.00;84.40
3866;DHT22;1948;53.250;10.412;2022-11-21T11:55:52;18.50;84.70
3866;DHT22;1948;53.250;10.412;2022-11-21T11:58:38;19.00;83.50
3866;DHT22;1948;53.250;10.412;2022-11-21T12:04:18;20.60;81.20
3866;DHT22;1948;53.250;10.412;2022-11-21T12:12:47;20.80;78.00
3866;DHT22;1948;53.250;10.412;2022-11-21T12:15:29;19.90;76.70
3866;DHT22;1948;53.250;10.412;2022-11-21T12:23:53;19.70;74.50
3866;DHT22;1948;53.250;10.412;2022-11-21T12:34:57;17.70;74.10
3866;DHT22;1948;53.250;10.412;2022-11-21T12:37:56;17.80;76.40
3866;DHT22;1948;53.250;10.412;2022-11-21T12:44:01;19.00;75.20
3866;DHT22;1948;53.250;10.412;2022-11-21T12:46:56;18.60;73.60
3866;DHT22;1948;53.250;10.412;2022-11-21T12:50:06;19.50;73.90
3866;DHT22;1948;53.250;10.412;2022-11-21T12:53:11;19.50;72.30
3866;DHT22;1948;53.250;10.412;2022-11-21T12:56:19;18.70;72.60
3866;DHT22;1948;53.250;10.412;2022-11-21T12:58:57;17.80;73.20
3866;DHT22;1948;53.250;10.412;2022-11-21T13:04:29;18.00;74.20
3866;DHT22;1948;53.250;10.412;2022-11-21T13:07:02;18.00;73.10
3866;DHT22;1948;53.250;10.412;2022-11-21T13:09:41;18.00;73.20
3866;DHT22;1948;53.250;10.412;2022-11-21T13:12:25;17.40;72.80
3866;DHT22;1948;53.250;10.412;2022-11-21T13:17:58;17.90;74.70
3866;DHT22;1948;53.250;10.412;2022-11-21T13:20:37;18.00;73.90
3866;DHT22;1948;53.250;10.412;2022-11-21T13:29:12;16.30;72.50
3866;DHT22;1948;53.250;10.412;2022-11-21T13:31:44;15.90;73.80
3866;DHT22;1948;53.250;10.412;2022-11-21T13:37:01;15.00;73.50
3866;DHT22;1948;53.250;10.412;2022-11-21T13:39:31;15.30;74.70
3866;DHT22;1948;53.250;10.412;2022-11-21T13:42:06;15.80;74.70
3866;DHT22;1948;53.250;10.412;2022-11-21T13:44:53;16.40;74.40
3866;DHT22;1948;53.250;10.412;2022-11-21T13:47:39;16.20;74.70
3866;DHT22;1948;53.250;10.412;2022-11-21T13:50:58;16.20;74.90
3866;DHT22;1948;53.250;10.412;2022-11-21T13:57:03;15.20;75.40
3866;DHT22;1948;53.250;10.412;2022-11-21T14:00:15;14.20;75.70
3866;DHT22;1948;53.250;10.412;2022-11-21T14:06:28;13.20;78.70
3866;DHT22;1948;53.250;10.412;2022-11-21T14:11:59;11.90;85.30
3866;DHT22;1948;53.250;10.412;2022-11-21T14:17:47;12.70;85.90
3866;DHT22;1948;53.250;10.412;2022-11-21T14:20:47;13.20;85.50
3866;DHT22;1948;53.250;10.412;2022-11-21T14:23:23;13.20;84.60
3866;DHT22;1948;53.250;10.412;2022-11-21T14:26:01;11.90;86.10
3866;DHT22;1948;53.250;10.412;2022-11-21T14:28:34;10.00;90.50
3866;DHT22;1948;53.250;10.412;2022-11-21T14:31:09;8.50;95.90
3866;DHT22;1948;53.250;10.412;2022-11-21T14:33:46;7.50;99.90
3866;DHT22;1948;53.250;10.412;2022-11-21T14:36:22;6.80;99.90
3866;DHT22;1948;53.250;10.412;2022-11-21T14:38:58;6.40;99.90
3866;DHT22;1948;53.250;10.412;2022-11-21T14:41:58;6.00;99.90
3866;DHT22;1948;53.250;10.412;2022-11-21T14:44:26;5.60;99.90
3866;DHT22;1948;53.250;10.412;2022-11-21T14:49:52;5.20;99.90
3866;DHT22;1948;53.250;10.412;2022-11-21T14:52:25;5.10;99.90
3866;DHT22;1948;53.250;10.412;2022-11-21T14:55:04;4.90;99.90
3866;DHT22;1948;53.250;10.412;2022-11-21T14:57:53;4.70;99.90
3866;DHT22;1948;53.250;10.412;2022-11-21T15:00:23;4.60;99.90
3866;DHT22;1948;53.250;10.412;2022-11-21T15:03:20;4.40;99.90
3866;DHT22;1948;53.250;10.412;2022-11-21T15:05:49;4.30;99.90
3866;DHT22;1948;53.250;10.412;2022-11-21T15:08:32;4.20;99.90
3866;DHT22;1948;53.250;10.412;2022-11-21T15:11:23;4.10;99.90
3866;DHT22;1948;53.250;10.412;2022-11-21T15:13:58;3.80;99.90
3866;DHT22;1948;53.250;10.412;2022-11-21T15:16:51;3.70;99.90
3866;DHT22;1948;53.250;10.412;2022-11-21T15:19:21;3.60;99.90
3866;DHT22;1948;53.250;10.412;2022-11-21T15:21:54;3.50;99.90
3866;DHT22;1948;53.250;10.412;2022-11-21T15:27:00;3.20;99.90
3866;DHT22;1948;53.250;10.412;2022-11-21T15:29:28;3.10;99.90
3866;DHT22;1948;53.250;10.412;2022-11-21T15:32:13;2.90;99.90
3866;DHT22;1948;53.250;10.412;2022-11-21T15:38:25;2.60;99.90
3866;DHT22;1948;53.250;10.412;2022-11-21T15:41:02;2.40;99.90
3866;DHT22;1948;53.250;10.412;2022-11-21T15:43:44;2.30;99.90
3866;DHT22;1948;53.250;10.412;2022-11-21T15:46:26;2.20;99.90
3866;DHT22;1948;53.250;10.412;2022-11-21T15:49:01;2.10;99.90
3866;DHT22;1948;53.250;10.412;2022-11-21T15:51:49;2.00;99.90
3866;DHT22;1948;53.250;10.412;2022-11-21T15:54:33;1.80;99.90
3866;DHT22;1948;53.250;10.412;2022-11-21T15:57:00;1.70;99.90
3866;DHT22;1948;53.250;10.412;2022-11-21T15:59:29;1.70;99.90
3866;DHT22;1948;53.250;10.412;2022-11-21T16:01:57;1.60;99.90
3866;DHT22;1948;53.250;10.412;2022-11-21T16:04:26;1.60;99.90
3866;DHT22;1948;53.250;10.412;2022-11-21T16:06:56;1.50;99.90
3866;DHT22;1948;53.250;10.412;2022-11-21T16:09:25;1.40;99.90
3866;DHT22;1948;53.250;10.412;2022-11-21T16:11:55;1.20;99.90
3866;DHT22;1948;53.250;10.412;2022-11-21T16:14:22;1.10;99.90
3866;DHT22;1948;53.250;10.412;2022-11-21T16:16:51;0.90;99.90
3866;DHT22;1948;53.250;10.412;2022-11-21T16:19:18;0.90;99.90
3866;DHT22;1948;53.250;10.412;2022-11-21T16:21:47;0.70;99.90
3866;DHT22;1948;53.250;10.412;2022-11-21T16:24:17;0.70;99.90
3866;DHT22;1948;53.250;10.412;2022-11-21T16:26:46;0.60;99.90
3866;DHT22;1948;53.250;10.412;2022-11-21T16:29:18;0.40;99.90
3866;DHT22;1948;53.250;10.412;2022-11-21T16:31:45;0.40;99.90
3866;DHT22;1948;53.250;10.412;2022-11-21T16:34:20;0.40;99.90
3866;DHT22;1948;53.250;10.412;2022-11-21T16:36:53;0.30;99.90
3866;DHT22;1948;53.250;10.412;2022-11-21T16:39:20;0.20;99.90
3866;DHT22;1948;53.250;10.412;2022-11-21T16:41:50;0.10;99.90
3866;DHT22;1948;53.250;10.412;2022-11-21T16:44:17;0.00;99.90
3866;DHT22;1948;53.250;10.412;2022-11-21T16:46:45;-0.10;99.90
3866;DHT22;1948;53.250;10.412;2022-11-21T16:49:21;-0.10;99.90
3866;DHT22;1948;53.250;10.412;2022-11-21T16:51:51;-0.10;99.90
3866;DHT22;1948;53.250;10.412;2022-11-21T16:54:20;-0.20;99.90
3866;DHT22;1948;53.250;10.412;2022-11-21T16:56:47;-0.20;99.90
3866;DHT22;1948;53.250;10.412;2022-11-21T16:59:20;-0.20;99.90
3866;DHT22;1948;53.250;10.412;2022-11-21T17:01:49;-0.10;99.90
3866;DHT22;1948;53.250;10.412;2022-11-21T17:04:17;-0.10;99.90
3866;DHT22;1948;53.250;10.412;2022-11-21T17:06:48;-0.10;99.90
3866;DHT22;1948;53.250;10.412;2022-11-21T17:09:15;-0.10;99.90
3866;DHT22;1948;53.250;10.412;2022-11-21T17:11:42;-0.10;99.90
3866;DHT22;1948;53.250;10.412;2022-11-21T17:14:14;0.00;99.90
3866;DHT22;1948;53.250;10.412;2022-11-21T17:16:41;0.10;99.90
3866;DHT22;1948;53.250;10.412;2022-11-21T17:19:12;0.10;99.90
3866;DHT22;1948;53.250;10.412;2022-11-21T17:21:42;0.10;99.90
3866;DHT22;1948;53.250;10.412;2022-11-21T17:24:11;0.10;99.90
3866;DHT22;1948;53.250;10.412;2022-11-21T17:26:39;0.10;99.90
3866;DHT22;1948;53.250;10.412;2022-11-21T17:29:06;0.10;99.90
3866;DHT22;1948;53.250;10.412;2022-11-21T17:31:33;0.00;99.90
3866;DHT22;1948;53.250;10.412;2022-11-21T17:34:02;0.00;99.90
3866;DHT22;1948;53.250;10.412;2022-11-21T17:36:32;-0.10;99.90
3866;DHT22;1948;53.250;10.412;2022-11-21T17:39:00;-0.10;99.90
3866;DHT22;1948;53.250;10.412;2022-11-21T17:41:27;-0.10;99.90
3866;DHT22;1948;53.250;10.412;2022-11-21T17:43:55;-0.10;99.90
3866;DHT22;1948;53.250;10.412;2022-11-21T17:46:29;-0.10;99.90
3866;DHT22;1948;53.250;10.412;2022-11-21T17:48:57;0.00;99.90
3866;DHT22;1948;53.250;10.412;2022-11-21T17:51:30;0.00;99.90
3866;DHT22;1948;53.250;10.412;2022-11-21T17:54:02;0.00;99.90
3866;DHT22;1948;53.250;10.412;2022-11-21T17:56:31;0.00;99.90
3866;DHT22;1948;53.250;10.412;2022-11-21T17:59:13;0.00;99.90
3866;DHT22;1948;53.250;10.412;2022-11-21T18:01:40;-0.10;99.90
3866;DHT22;1948;53.250;10.412;2022-11-21T18:04:08;-0.10;99.90
3866;DHT22;1948;53.250;10.412;2022-11-21T18:06:41;-0.10;99.90
3866;DHT22;1948;53.250;10.412;2022-11-21T18:09:11;-0.10;99.90
3866;DHT22;1948;53.250;10.412;2022-11-21T18:11:39;-0.20;99.90
3866;DHT22;1948;53.250;10.412;2022-11-21T18:14:07;-0.20;99.90
3866;DHT22;1948;53.250;10.412;2022-11-21T18:16:36;-0.20;99.90
3866;DHT22;1948;53.250;10.412;2022-11-21T18:19:05;-0.30;99.90
3866;DHT22;1948;53.250;10.412;2022-11-21T18:21:33;-0.30;99.90
3866;DHT22;1948;53.250;10.412;2022-11-21T18:24:01;-0.40;99.90
3866;DHT22;1948;53.250;10.412;2022-11-21T18:26:31;-0.40;99.90
3866;DHT22;1948;53.250;10.412;2022-11-21T18:29:00;-0.40;99.90
3866;DHT22;1948;53.250;10.412;2022-11-21T18:31:51;-0.40;99.90
3866;DHT22;1948;53.250;10.412;2022-11-21T18:34:21;-0.40;99.90
3866;DHT22;1948;53.250;10.412;2022-11-21T18:36:51;-0.40;99.90
3866;DHT22;1948;53.250;10.412;2022-11-21T18:39:19;-0.40;99.90
3866;DHT22;1948;53.250;10.412;2022-11-21T18:41:48;-0.30;99.90
3866;DHT22;1948;53.250;10.412;2022-11-21T18:44:16;-0.30;99.90
3866;DHT22;1948;53.250;10.412;2022-11-21T18:46:48;-0.30;99.90